sensor_id;sensor_type;location;lat;lon;timestamp;P1;durP1;ratioP1;P2;durP2;ratioP2
29280;SDS011;25048;49.590;11.026;2023-08-06T00:00:12;9.50;;;6.22;;
29280;SDS011;25048;49.590;11.026;2023-08-06T00:02:39;10.98;;;6.83;;
29280;SDS011;25048;49.590;11.026;2023-08-06T00:05:07;7.97;;;6.28;;
29280;SDS011;25048;49.590;11.026;2023-08-06T00:07:34;11.57;;;6.50;;
29280;SDS011;25048;49.590;11.026;2023-08-06T00:10:02;7.17;;;6.00;;
29280;SDS011;25048;49.590;11.026;2023-08-06T00:12:29;9.25;;;5.30;;
29280;SDS011;25048;49.590;11.026;2023-08-06T00:14:57;8.05;;;5.40;;
29280;SDS011;25048;49.590;11.026;2023-08-06T00:17:24;9.38;;;4.70;;
29280;SDS011;25048;49.590;11.026;2023-08-06T00:19:52;6.15;;;4.72;;
29280;SDS011;25048;49.590;11.026;2023-08-06T00:22:19;5.37;;;4.03;;
29280;SDS011;25048;49.590;11.026;2023-08-06T00:24:47;5.30;;;4.33;;
29280;SDS011;25048;49.590;11.026;2023-08-06T00:27:14;5.62;;;4.35;;
29280;SDS011;25048;49.590;11.026;2023-08-06T00:29:42;5.15;;;4.20;;
29280;SDS011;25048;49.590;11.026;2023-08-06T00:32:09;5.37;;;4.37;;
29280;SDS011;25048;49.590;11.026;2023-08-06T00:34:37;6.50;;;5.03;;
29280;SDS011;25048;49.590;11.026;2023-08-06T00:37:04;9.55;;;5.40;;
29280;SDS011;25048;49.590;11.026;2023-08-06T00:39:32;7.15;;;4.33;;
29280;SDS011;25048;49.590;11.026;2023-08-06T00:41:59;6.28;;;4.50;;
29280;SDS011;25048;49.590;11.026;2023-08-06T00:44:27;6.15;;;4.05;;
29280;SDS011;25048;49.590;11.026;2023-08-06T00:46:55;5.87;;;4.65;;
29280;SDS011;25048;49.590;11.026;2023-08-06T00:49:22;5.47;;;4.50;;
29280;SDS011;25048;49.590;11.026;2023-08-06T00:51:50;5.75;;;4.12;;
29280;SDS011;25048;49.590;11.026;2023-08-06T00:54:18;5.30;;;4.75;;
29280;SDS011;25048;49.590;11.026;2023-08-06T00:56:45;5.05;;;4.00;;
29280;SDS011;25048;49.590;11.026;2023-08-06T00:59:13;5.15;;;4.03;;
29280;SDS011;25048;49.590;11.026;2023-08-06T01:01:41;6.47;;;3.62;;
29280;SDS011;25048;49.590;11.026;2023-08-06T01:04:10;5.20;;;3.98;;
29280;SDS011;25048;49.590;11.026;2023-08-06T01:06:44;7.67;;;3.52;;
29280;SDS011;25048;49.590;11.026;2023-08-06T01:09:17;4.15;;;3.75;;
29280;SDS011;25048;49.590;11.026;2023-08-06T01:14:42;4.08;;;3.67;;
29280;SDS011;25048;49.590;11.026;2023-08-06T01:17:14;7.17;;;3.50;;
29280;SDS011;25048;49.590;11.026;2023-08-06T01:19:42;5.67;;;3.98;;
29280;SDS011;25048;49.590;11.026;2023-08-06T01:22:10;5.50;;;3.67;;
29280;SDS011;25048;49.590;11.026;2023-08-06T01:24:37;5.33;;;3.20;;
29280;SDS011;25048;49.590;11.026;2023-08-06T01:27:10;4.25;;;3.15;;
29280;SDS011;25048;49.590;11.026;2023-08-06T01:29:59;6.65;;;3.80;;
29280;SDS011;25048;49.590;11.026;2023-08-06T01:32:46;3.60;;;3.20;;
29280;SDS011;25048;49.590;11.026;2023-08-06T01:35:16;4.53;;;3.25;;
29280;SDS011;25048;49.590;11.026;2023-08-06T01:37:45;3.72;;;3.37;;
29280;SDS011;25048;49.590;11.026;2023-08-06T01:40:14;4.67;;;3.80;;
29280;SDS011;25048;49.590;11.026;2023-08-06T01:42:41;6.87;;;4.03;;
29280;SDS011;25048;49.590;11.026;2023-08-06T01:45:09;3.98;;;3.45;;
29280;SDS011;25048;49.590;11.026;2023-08-06T01:47:37;4.37;;;3.33;;
29280;SDS011;25048;49.590;11.026;2023-08-06T01:50:04;3.72;;;3.35;;
29280;SDS011;25048;49.590;11.026;2023-08-06T01:52:32;3.65;;;2.70;;
29280;SDS011;25048;49.590;11.026;2023-08-06T01:54:59;4.60;;;3.10;;
29280;SDS011;25048;49.590;11.026;2023-08-06T01:57:27;3.65;;;2.83;;
29280;SDS011;25048;49.590;11.026;2023-08-06T01:59:54;3.98;;;3.10;;
29280;SDS011;25048;49.590;11.026;2023-08-06T02:02:22;3.08;;;2.77;;
29280;SDS011;25048;49.590;11.026;2023-08-06T02:04:50;5.60;;;3.27;;
29280;SDS011;25048;49.590;11.026;2023-08-06T02:07:17;3.12;;;2.77;;
29280;SDS011;25048;49.590;11.026;2023-08-06T02:09:45;3.30;;;3.00;;
29280;SDS011;25048;49.590;11.026;2023-08-06T02:12:12;4.37;;;3.02;;
29280;SDS011;25048;49.590;11.026;2023-08-06T02:14:40;3.02;;;2.70;;
29280;SDS011;25048;49.590;11.026;2023-08-06T02:17:07;3.72;;;3.12;;
29280;SDS011;25048;49.590;11.026;2023-08-06T02:19:35;3.60;;;2.98;;
29280;SDS011;25048;49.590;11.026;2023-08-06T02:22:02;4.05;;;3.15;;
29280;SDS011;25048;49.590;11.026;2023-08-06T02:24:30;3.27;;;2.90;;
29280;SDS011;25048;49.590;11.026;2023-08-06T02:26:57;3.55;;;2.87;;
29280;SDS011;25048;49.590;11.026;2023-08-06T02:29:25;3.27;;;2.87;;
29280;SDS011;25048;49.590;11.026;2023-08-06T02:31:52;3.85;;;3.20;;
29280;SDS011;25048;49.590;11.026;2023-08-06T02:34:20;3.80;;;3.33;;
29280;SDS011;25048;49.590;11.026;2023-08-06T02:36:47;3.25;;;2.85;;
29280;SDS011;25048;49.590;11.026;2023-08-06T02:39:15;3.40;;;2.83;;
29280;SDS011;25048;49.590;11.026;2023-08-06T02:41:43;5.87;;;2.90;;
29280;SDS011;25048;49.590;11.026;2023-08-06T02:44:11;5.90;;;3.30;;
29280;SDS011;25048;49.590;11.026;2023-08-06T02:46:38;5.40;;;3.70;;
29280;SDS011;25048;49.590;11.026;2023-08-06T02:49:06;3.22;;;2.85;;
29280;SDS011;25048;49.590;11.026;2023-08-06T02:51:33;5.50;;;3.42;;
29280;SDS011;25048;49.590;11.026;2023-08-06T02:54:01;5.65;;;3.15;;
29280;SDS011;25048;49.590;11.026;2023-08-06T02:56:28;3.42;;;3.02;;
29280;SDS011;25048;49.590;11.026;2023-08-06T02:58:56;3.52;;;2.80;;
29280;SDS011;25048;49.590;11.026;2023-08-06T03:01:24;4.03;;;3.02;;
29280;SDS011;25048;49.590;11.026;2023-08-06T03:03:52;4.42;;;3.22;;
29280;SDS011;25048;49.590;11.026;2023-08-06T03:06:20;4.55;;;3.15;;
29280;SDS011;25048;49.590;11.026;2023-08-06T03:08:47;3.80;;;3.17;;
29280;SDS011;25048;49.590;11.026;2023-08-06T03:11:15;5.62;;;3.15;;
29280;SDS011;25048;49.590;11.026;2023-08-06T03:13:43;6.50;;;3.70;;
29280;SDS011;25048;49.590;11.026;2023-08-06T03:16:10;3.58;;;3.10;;
29280;SDS011;25048;49.590;11.026;2023-08-06T03:18:38;5.90;;;3.60;;
29280;SDS011;25048;49.590;11.026;2023-08-06T03:21:05;3.45;;;3.10;;
29280;SDS011;25048;49.590;11.026;2023-08-06T03:23:33;5.57;;;3.13;;
29280;SDS011;25048;49.590;11.026;2023-08-06T03:26:01;8.18;;;3.10;;
29280;SDS011;25048;49.590;11.026;2023-08-06T03:28:29;4.92;;;3.20;;
29280;SDS011;25048;49.590;11.026;2023-08-06T03:31:00;3.90;;;3.00;;
29280;SDS011;25048;49.590;11.026;2023-08-06T03:33:29;5.87;;;2.92;;
29280;SDS011;25048;49.590;11.026;2023-08-06T03:35:57;3.95;;;3.55;;
29280;SDS011;25048;49.590;11.026;2023-08-06T03:38:24;5.85;;;3.62;;
29280;SDS011;25048;49.590;11.026;2023-08-06T03:40:52;4.05;;;3.40;;
29280;SDS011;25048;49.590;11.026;2023-08-06T03:43:19;4.55;;;3.10;;
29280;SDS011;25048;49.590;11.026;2023-08-06T03:45:47;4.75;;;3.02;;
29280;SDS011;25048;49.590;11.026;2023-08-06T03:48:14;4.10;;;3.60;;
29280;SDS011;25048;49.590;11.026;2023-08-06T03:50:42;3.60;;;3.08;;
29280;SDS011;25048;49.590;11.026;2023-08-06T03:53:09;2.58;;;2.37;;
29280;SDS011;25048;49.590;11.026;2023-08-06T03:55:37;5.62;;;3.08;;
29280;SDS011;25048;49.590;11.026;2023-08-06T03:58:04;5.20;;;2.70;;
29280;SDS011;25048;49.590;11.026;2023-08-06T04:00:32;4.30;;;2.40;;
29280;SDS011;25048;49.590;11.026;2023-08-06T04:02:59;3.72;;;2.95;;
29280;SDS011;25048;49.590;11.026;2023-08-06T04:05:27;5.78;;;2.95;;
29280;SDS011;25048;49.590;11.026;2023-08-06T04:07:54;5.72;;;2.72;;
29280;SDS011;25048;49.590;11.026;2023-08-06T04:10:22;3.30;;;3.00;;
29280;SDS011;25048;49.590;11.026;2023-08-06T04:12:49;3.43;;;2.83;;
29280;SDS011;25048;49.590;11.026;2023-08-06T04:15:17;3.77;;;2.83;;
29280;SDS011;25048;49.590;11.026;2023-08-06T04:17:44;3.57;;;3.10;;
29280;SDS011;25048;49.590;11.026;2023-08-06T04:20:12;3.97;;;2.97;;
29280;SDS011;25048;49.590;11.026;2023-08-06T04:22:39;5.20;;;2.77;;
29280;SDS011;25048;49.590;11.026;2023-08-06T04:25:07;3.07;;;2.77;;
29280;SDS011;25048;49.590;11.026;2023-08-06T04:27:34;3.27;;;2.97;;
29280;SDS011;25048;49.590;11.026;2023-08-06T04:30:04;5.17;;;3.17;;
29280;SDS011;25048;49.590;11.026;2023-08-06T04:32:32;3.67;;;2.50;;
29280;SDS011;25048;49.590;11.026;2023-08-06T04:35:00;4.70;;;3.10;;
29280;SDS011;25048;49.590;11.026;2023-08-06T04:37:27;3.92;;;3.27;;
29280;SDS011;25048;49.590;11.026;2023-08-06T04:39:55;6.83;;;3.52;;
29280;SDS011;25048;49.590;11.026;2023-08-06T04:42:22;5.47;;;3.30;;
29280;SDS011;25048;49.590;11.026;2023-08-06T04:44:50;6.53;;;3.90;;
29280;SDS011;25048;49.590;11.026;2023-08-06T04:47:17;5.97;;;4.60;;
29280;SDS011;25048;49.590;11.026;2023-08-06T04:49:45;5.27;;;3.87;;
29280;SDS011;25048;49.590;11.026;2023-08-06T04:52:12;5.58;;;4.30;;
29280;SDS011;25048;49.590;11.026;2023-08-06T04:54:40;5.15;;;4.47;;
29280;SDS011;25048;49.590;11.026;2023-08-06T04:57:07;6.28;;;4.62;;
29280;SDS011;25048;49.590;11.026;2023-08-06T04:59:35;5.42;;;4.47;;
29280;SDS011;25048;49.590;11.026;2023-08-06T05:02:02;6.08;;;4.10;;
29280;SDS011;25048;49.590;11.026;2023-08-06T05:04:30;6.27;;;5.20;;
29280;SDS011;25048;49.590;11.026;2023-08-06T05:06:58;7.07;;;4.57;;
29280;SDS011;25048;49.590;11.026;2023-08-06T05:09:26;7.10;;;4.50;;
29280;SDS011;25048;49.590;11.026;2023-08-06T05:11:54;11.80;;;4.90;;
29280;SDS011;25048;49.590;11.026;2023-08-06T05:14:21;8.17;;;5.03;;
29280;SDS011;25048;49.590;11.026;2023-08-06T05:16:48;9.73;;;4.50;;
29280;SDS011;25048;49.590;11.026;2023-08-06T05:19:16;5.45;;;4.70;;
29280;SDS011;25048;49.590;11.026;2023-08-06T05:21:43;12.20;;;4.80;;
29280;SDS011;25048;49.590;11.026;2023-08-06T05:24:11;7.80;;;4.83;;
29280;SDS011;25048;49.590;11.026;2023-08-06T05:26:38;10.00;;;5.87;;
29280;SDS011;25048;49.590;11.026;2023-08-06T05:29:06;8.50;;;5.00;;
29280;SDS011;25048;49.590;11.026;2023-08-06T05:31:33;9.80;;;5.08;;
29280;SDS011;25048;49.590;11.026;2023-08-06T05:34:01;8.10;;;4.67;;
29280;SDS011;25048;49.590;11.026;2023-08-06T05:36:28;9.90;;;5.55;;
29280;SDS011;25048;49.590;11.026;2023-08-06T05:38:56;8.20;;;5.20;;
29280;SDS011;25048;49.590;11.026;2023-08-06T05:41:23;9.25;;;5.12;;
29280;SDS011;25048;49.590;11.026;2023-08-06T05:43:51;16.07;;;5.47;;
29280;SDS011;25048;49.590;11.026;2023-08-06T05:46:18;6.58;;;5.35;;
29280;SDS011;25048;49.590;11.026;2023-08-06T05:48:46;7.97;;;5.67;;
29280;SDS011;25048;49.590;11.026;2023-08-06T05:51:13;8.30;;;5.85;;
29280;SDS011;25048;49.590;11.026;2023-08-06T05:53:42;9.83;;;4.85;;
29280;SDS011;25048;49.590;11.026;2023-08-06T05:56:11;7.42;;;5.37;;
29280;SDS011;25048;49.590;11.026;2023-08-06T05:58:39;7.95;;;4.92;;
29280;SDS011;25048;49.590;11.026;2023-08-06T06:01:06;7.37;;;5.67;;
29280;SDS011;25048;49.590;11.026;2023-08-06T06:03:34;5.72;;;4.45;;
29280;SDS011;25048;49.590;11.026;2023-08-06T06:06:01;15.00;;;5.42;;
29280;SDS011;25048;49.590;11.026;2023-08-06T06:08:29;7.50;;;5.08;;
29280;SDS011;25048;49.590;11.026;2023-08-06T06:10:56;10.20;;;5.17;;
29280;SDS011;25048;49.590;11.026;2023-08-06T06:13:24;6.35;;;4.47;;
29280;SDS011;25048;49.590;11.026;2023-08-06T06:15:57;6.13;;;4.80;;
29280;SDS011;25048;49.590;11.026;2023-08-06T06:18:22;10.32;;;5.42;;
29280;SDS011;25048;49.590;11.026;2023-08-06T06:20:49;8.03;;;4.97;;
29280;SDS011;25048;49.590;11.026;2023-08-06T06:23:17;13.28;;;5.58;;
29280;SDS011;25048;49.590;11.026;2023-08-06T06:25:48;9.93;;;4.85;;
29280;SDS011;25048;49.590;11.026;2023-08-06T06:28:19;8.68;;;4.80;;
29280;SDS011;25048;49.590;11.026;2023-08-06T06:30:47;6.53;;;4.67;;
29280;SDS011;25048;49.590;11.026;2023-08-06T06:33:15;4.78;;;3.85;;
29280;SDS011;25048;49.590;11.026;2023-08-06T06:35:42;5.70;;;4.45;;
29280;SDS011;25048;49.590;11.026;2023-08-06T06:38:10;5.45;;;3.87;;
29280;SDS011;25048;49.590;11.026;2023-08-06T06:40:37;7.83;;;4.92;;
29280;SDS011;25048;49.590;11.026;2023-08-06T06:43:05;5.12;;;3.58;;
29280;SDS011;25048;49.590;11.026;2023-08-06T06:45:32;9.63;;;5.15;;
29280;SDS011;25048;49.590;11.026;2023-08-06T06:48:00;4.05;;;3.42;;
29280;SDS011;25048;49.590;11.026;2023-08-06T06:50:27;5.42;;;3.80;;
29280;SDS011;25048;49.590;11.026;2023-08-06T06:52:55;4.40;;;3.08;;
29280;SDS011;25048;49.590;11.026;2023-08-06T06:55:22;5.28;;;3.77;;
29280;SDS011;25048;49.590;11.026;2023-08-06T06:57:50;5.75;;;3.30;;
29280;SDS011;25048;49.590;11.026;2023-08-06T07:00:17;5.62;;;3.90;;
29280;SDS011;25048;49.590;11.026;2023-08-06T07:02:45;6.22;;;3.35;;
29280;SDS011;25048;49.590;11.026;2023-08-06T07:05:12;4.33;;;3.75;;
29280;SDS011;25048;49.590;11.026;2023-08-06T07:07:40;8.13;;;4.30;;
29280;SDS011;25048;49.590;11.026;2023-08-06T07:10:08;5.40;;;4.10;;
29280;SDS011;25048;49.590;11.026;2023-08-06T07:12:35;7.78;;;4.33;;
29280;SDS011;25048;49.590;11.026;2023-08-06T07:15:04;5.03;;;3.85;;
29280;SDS011;25048;49.590;11.026;2023-08-06T07:17:35;5.55;;;3.85;;
29280;SDS011;25048;49.590;11.026;2023-08-06T07:20:03;5.40;;;3.60;;
29280;SDS011;25048;49.590;11.026;2023-08-06T07:22:32;6.25;;;4.47;;
29280;SDS011;25048;49.590;11.026;2023-08-06T07:24:59;4.37;;;3.52;;
29280;SDS011;25048;49.590;11.026;2023-08-06T07:27:27;5.05;;;4.28;;
29280;SDS011;25048;49.590;11.026;2023-08-06T07:29:54;4.45;;;3.70;;
29280;SDS011;25048;49.590;11.026;2023-08-06T07:32:22;4.60;;;3.98;;
29280;SDS011;25048;49.590;11.026;2023-08-06T07:34:49;6.03;;;3.87;;
29280;SDS011;25048;49.590;11.026;2023-08-06T07:37:18;6.12;;;4.47;;
29280;SDS011;25048;49.590;11.026;2023-08-06T07:39:46;4.87;;;3.67;;
29280;SDS011;25048;49.590;11.026;2023-08-06T07:42:13;3.67;;;3.30;;
29280;SDS011;25048;49.590;11.026;2023-08-06T07:44:41;4.40;;;3.65;;
29280;SDS011;25048;49.590;11.026;2023-08-06T07:47:08;4.00;;;3.20;;
29280;SDS011;25048;49.590;11.026;2023-08-06T07:49:39;6.42;;;3.65;;
29280;SDS011;25048;49.590;11.026;2023-08-06T07:52:06;7.80;;;3.40;;
29280;SDS011;25048;49.590;11.026;2023-08-06T07:54:34;6.55;;;4.03;;
29280;SDS011;25048;49.590;11.026;2023-08-06T07:57:01;7.85;;;3.40;;
29280;SDS011;25048;49.590;11.026;2023-08-06T07:59:29;5.42;;;3.40;;
29280;SDS011;25048;49.590;11.026;2023-08-06T08:01:57;5.85;;;3.83;;
29280;SDS011;25048;49.590;11.026;2023-08-06T08:04:24;5.87;;;3.08;;
29280;SDS011;25048;49.590;11.026;2023-08-06T08:06:52;5.75;;;3.35;;
29280;SDS011;25048;49.590;11.026;2023-08-06T08:09:19;5.30;;;2.72;;
29280;SDS011;25048;49.590;11.026;2023-08-06T08:11:47;3.12;;;2.27;;
29280;SDS011;25048;49.590;11.026;2023-08-06T08:14:14;4.10;;;2.25;;
29280;SDS011;25048;49.590;11.026;2023-08-06T08:16:42;2.77;;;1.67;;
29280;SDS011;25048;49.590;11.026;2023-08-06T08:19:09;1.55;;;1.40;;
29280;SDS011;25048;49.590;11.026;2023-08-06T08:21:37;1.10;;;0.98;;
29280;SDS011;25048;49.590;11.026;2023-08-06T08:24:04;0.82;;;0.82;;
29280;SDS011;25048;49.590;11.026;2023-08-06T08:26:32;1.45;;;1.20;;
29280;SDS011;25048;49.590;11.026;2023-08-06T08:28:59;2.45;;;1.15;;
29280;SDS011;25048;49.590;11.026;2023-08-06T08:31:27;0.82;;;0.68;;
29280;SDS011;25048;49.590;11.026;2023-08-06T08:33:55;2.70;;;0.93;;
29280;SDS011;25048;49.590;11.026;2023-08-06T08:36:23;0.68;;;0.50;;
29280;SDS011;25048;49.590;11.026;2023-08-06T08:38:51;1.62;;;0.80;;
29280;SDS011;25048;49.590;11.026;2023-08-06T08:41:19;2.05;;;0.60;;
29280;SDS011;25048;49.590;11.026;2023-08-06T08:43:48;0.50;;;0.50;;
29280;SDS011;25048;49.590;11.026;2023-08-06T08:46:19;2.42;;;1.15;;
29280;SDS011;25048;49.590;11.026;2023-08-06T08:48:47;0.30;;;0.30;;
29280;SDS011;25048;49.590;11.026;2023-08-06T08:51:15;0.40;;;0.40;;
29280;SDS011;25048;49.590;11.026;2023-08-06T08:53:44;0.72;;;0.42;;
29280;SDS011;25048;49.590;11.026;2023-08-06T08:56:12;0.53;;;0.42;;
29280;SDS011;25048;49.590;11.026;2023-08-06T08:58:40;3.90;;;0.57;;
29280;SDS011;25048;49.590;11.026;2023-08-06T09:01:08;1.98;;;0.88;;
29280;SDS011;25048;49.590;11.026;2023-08-06T09:03:36;2.65;;;0.60;;
29280;SDS011;25048;49.590;11.026;2023-08-06T09:06:04;0.75;;;0.50;;
29280;SDS011;25048;49.590;11.026;2023-08-06T09:08:39;0.75;;;0.50;;
29280;SDS011;25048;49.590;11.026;2023-08-06T09:11:04;1.35;;;0.50;;
29280;SDS011;25048;49.590;11.026;2023-08-06T09:13:33;0.42;;;0.40;;
29280;SDS011;25048;49.590;11.026;2023-08-06T09:16:04;0.53;;;0.40;;
29280;SDS011;25048;49.590;11.026;2023-08-06T09:18:31;0.93;;;0.40;;
29280;SDS011;25048;49.590;11.026;2023-08-06T09:20:59;2.05;;;0.50;;
29280;SDS011;25048;49.590;11.026;2023-08-06T09:23:30;1.20;;;0.40;;
29280;SDS011;25048;49.590;11.026;2023-08-06T09:25:59;0.65;;;0.40;;
29280;SDS011;25048;49.590;11.026;2023-08-06T09:28:37;1.15;;;0.57;;
29280;SDS011;25048;49.590;11.026;2023-08-06T09:31:05;4.28;;;0.40;;
29280;SDS011;25048;49.590;11.026;2023-08-06T09:33:32;0.33;;;0.30;;
29280;SDS011;25048;49.590;11.026;2023-08-06T09:36:13;0.47;;;0.45;;
29280;SDS011;25048;49.590;11.026;2023-08-06T09:38:37;0.35;;;0.20;;
29280;SDS011;25048;49.590;11.026;2023-08-06T09:41:08;0.40;;;0.40;;
29280;SDS011;25048;49.590;11.026;2023-08-06T09:43:42;0.35;;;0.30;;
29280;SDS011;25048;49.590;11.026;2023-08-06T09:46:16;0.30;;;0.30;;
29280;SDS011;25048;49.590;11.026;2023-08-06T09:48:46;0.28;;;0.28;;
29280;SDS011;25048;49.590;11.026;2023-08-06T09:51:15;0.55;;;0.33;;
29280;SDS011;25048;49.590;11.026;2023-08-06T09:53:43;1.65;;;0.40;;
29280;SDS011;25048;49.590;11.026;2023-08-06T09:56:12;0.53;;;0.40;;
29280;SDS011;25048;49.590;11.026;2023-08-06T09:58:42;0.23;;;0.23;;
29280;SDS011;25048;49.590;11.026;2023-08-06T10:01:10;0.30;;;0.30;;
29280;SDS011;25048;49.590;11.026;2023-08-06T10:03:38;0.30;;;0.30;;
29280;SDS011;25048;49.590;11.026;2023-08-06T10:06:07;0.47;;;0.30;;
29280;SDS011;25048;49.590;11.026;2023-08-06T10:08:34;0.30;;;0.30;;
29280;SDS011;25048;49.590;11.026;2023-08-06T10:11:02;0.37;;;0.30;;
29280;SDS011;25048;49.590;11.026;2023-08-06T10:13:32;0.33;;;0.33;;
29280;SDS011;25048;49.590;11.026;2023-08-06T10:16:01;0.20;;;0.20;;
29280;SDS011;25048;49.590;11.026;2023-08-06T10:18:30;0.30;;;0.30;;
29280;SDS011;25048;49.590;11.026;2023-08-06T10:20:59;0.35;;;0.35;;
29280;SDS011;25048;49.590;11.026;2023-08-06T10:23:33;0.47;;;0.30;;
29280;SDS011;25048;49.590;11.026;2023-08-06T10:26:04;1.62;;;0.47;;
29280;SDS011;25048;49.590;11.026;2023-08-06T10:28:33;0.72;;;0.47;;
29280;SDS011;25048;49.590;11.026;2023-08-06T10:31:02;0.37;;;0.37;;
29280;SDS011;25048;49.590;11.026;2023-08-06T10:33:41;0.53;;;0.37;;
29280;SDS011;25048;49.590;11.026;2023-08-06T10:36:10;2.55;;;0.50;;
29280;SDS011;25048;49.590;11.026;2023-08-06T10:38:45;0.40;;;0.40;;
29280;SDS011;25048;49.590;11.026;2023-08-06T10:41:15;0.57;;;0.40;;
29280;SDS011;25048;49.590;11.026;2023-08-06T10:43:50;0.35;;;0.30;;
29280;SDS011;25048;49.590;11.026;2023-08-06T10:46:22;0.35;;;0.30;;
29280;SDS011;25048;49.590;11.026;2023-08-06T10:48:51;0.30;;;0.30;;
29280;SDS011;25048;49.590;11.026;2023-08-06T10:51:19;1.75;;;0.50;;
29280;SDS011;25048;49.590;11.026;2023-08-06T10:53:47;2.45;;;0.60;;
29280;SDS011;25048;49.590;11.026;2023-08-06T10:56:17;0.40;;;0.40;;
29280;SDS011;25048;49.590;11.026;2023-08-06T10:58:46;0.40;;;0.40;;
29280;SDS011;25048;49.590;11.026;2023-08-06T11:01:14;0.30;;;0.30;;
29280;SDS011;25048;49.590;11.026;2023-08-06T11:03:42;0.40;;;0.40;;
29280;SDS011;25048;49.590;11.026;2023-08-06T11:06:16;0.30;;;0.30;;
29280;SDS011;25048;49.590;11.026;2023-08-06T11:08:49;0.40;;;0.40;;
29280;SDS011;25048;49.590;11.026;2023-08-06T11:11:19;2.52;;;0.45;;
29280;SDS011;25048;49.590;11.026;2023-08-06T11:13:48;0.30;;;0.30;;
29280;SDS011;25048;49.590;11.026;2023-08-06T11:16:20;0.40;;;0.40;;
29280;SDS011;25048;49.590;11.026;2023-08-06T11:18:50;0.30;;;0.30;;
29280;SDS011;25048;49.590;11.026;2023-08-06T11:21:20;0.40;;;0.40;;
29280;SDS011;25048;49.590;11.026;2023-08-06T11:23:48;0.30;;;0.30;;
29280;SDS011;25048;49.590;11.026;2023-08-06T11:26:19;0.30;;;0.30;;
29280;SDS011;25048;49.590;11.026;2023-08-06T11:28:49;0.50;;;0.50;;
29280;SDS011;25048;49.590;11.026;2023-08-06T11:31:20;0.40;;;0.40;;
29280;SDS011;25048;49.590;11.026;2023-08-06T11:33:52;0.40;;;0.40;;
29280;SDS011;25048;49.590;11.026;2023-08-06T11:36:33;0.40;;;0.40;;
29280;SDS011;25048;49.590;11.026;2023-08-06T11:39:03;0.30;;;0.30;;
29280;SDS011;25048;49.590;11.026;2023-08-06T11:41:31;0.28;;;0.28;;
29280;SDS011;25048;49.590;11.026;2023-08-06T11:43:59;0.20;;;0.20;;
29280;SDS011;25048;49.590;11.026;2023-08-06T11:46:27;0.30;;;0.30;;
29280;SDS011;25048;49.590;11.026;2023-08-06T11:48:55;0.30;;;0.30;;
29280;SDS011;25048;49.590;11.026;2023-08-06T11:51:23;1.07;;;0.40;;
29280;SDS011;25048;49.590;11.026;2023-08-06T11:53:57;1.00;;;0.40;;
29280;SDS011;25048;49.590;11.026;2023-08-06T11:56:25;0.45;;;0.40;;
29280;SDS011;25048;49.590;11.026;2023-08-06T11:58:54;1.32;;;0.33;;
29280;SDS011;25048;49.590;11.026;2023-08-06T12:01:21;0.37;;;0.37;;
29280;SDS011;25048;49.590;11.026;2023-08-06T12:03:50;0.72;;;0.42;;
29280;SDS011;25048;49.590;11.026;2023-08-06T12:06:17;1.67;;;1.30;;
29280;SDS011;25048;49.590;11.026;2023-08-06T12:08:45;1.20;;;0.45;;
29280;SDS011;25048;49.590;11.026;2023-08-06T12:11:14;0.42;;;0.42;;
29280;SDS011;25048;49.590;11.026;2023-08-06T12:13:41;1.27;;;0.35;;
29280;SDS011;25048;49.590;11.026;2023-08-06T12:16:09;0.35;;;0.30;;
29280;SDS011;25048;49.590;11.026;2023-08-06T12:18:36;0.45;;;0.40;;
29280;SDS011;25048;49.590;11.026;2023-08-06T12:21:04;0.57;;;0.57;;
29280;SDS011;25048;49.590;11.026;2023-08-06T12:23:31;0.40;;;0.40;;
29280;SDS011;25048;49.590;11.026;2023-08-06T12:25:59;0.42;;;0.35;;
29280;SDS011;25048;49.590;11.026;2023-08-06T12:28:26;1.70;;;0.45;;
29280;SDS011;25048;49.590;11.026;2023-08-06T12:30:54;0.75;;;0.50;;
29280;SDS011;25048;49.590;11.026;2023-08-06T12:33:21;1.15;;;0.40;;
29280;SDS011;25048;49.590;11.026;2023-08-06T12:35:49;0.35;;;0.35;;
29280;SDS011;25048;49.590;11.026;2023-08-06T12:38:18;0.30;;;0.30;;
29280;SDS011;25048;49.590;11.026;2023-08-06T12:40:45;0.40;;;0.40;;
29280;SDS011;25048;49.590;11.026;2023-08-06T12:43:13;0.33;;;0.33;;
29280;SDS011;25048;49.590;11.026;2023-08-06T12:45:40;0.40;;;0.40;;
29280;SDS011;25048;49.590;11.026;2023-08-06T12:48:08;0.40;;;0.40;;
29280;SDS011;25048;49.590;11.026;2023-08-06T12:50:35;0.68;;;0.40;;
29280;SDS011;25048;49.590;11.026;2023-08-06T12:53:03;0.35;;;0.35;;
29280;SDS011;25048;49.590;11.026;2023-08-06T12:55:31;0.42;;;0.40;;
29280;SDS011;25048;49.590;11.026;2023-08-06T12:57:58;0.85;;;0.60;;
29280;SDS011;25048;49.590;11.026;2023-08-06T13:00:26;1.20;;;0.50;;
29280;SDS011;25048;49.590;11.026;2023-08-06T13:02:54;1.60;;;0.45;;
29280;SDS011;25048;49.590;11.026;2023-08-06T13:05:21;0.30;;;0.28;;
29280;SDS011;25048;49.590;11.026;2023-08-06T13:07:49;0.50;;;0.35;;
29280;SDS011;25048;49.590;11.026;2023-08-06T13:10:16;0.40;;;0.40;;
29280;SDS011;25048;49.590;11.026;2023-08-06T13:12:44;0.30;;;0.30;;
29280;SDS011;25048;49.590;11.026;2023-08-06T13:15:12;0.30;;;0.30;;
29280;SDS011;25048;49.590;11.026;2023-08-06T13:17:40;0.53;;;0.30;;
29280;SDS011;25048;49.590;11.026;2023-08-06T13:20:07;0.30;;;0.30;;
29280;SDS011;25048;49.590;11.026;2023-08-06T13:22:36;0.25;;;0.23;;
29280;SDS011;25048;49.590;11.026;2023-08-06T13:25:03;0.98;;;0.45;;
29280;SDS011;25048;49.590;11.026;2023-08-06T13:27:31;0.70;;;0.30;;
29280;SDS011;25048;49.590;11.026;2023-08-06T13:29:58;1.20;;;0.40;;
29280;SDS011;25048;49.590;11.026;2023-08-06T13:32:26;0.30;;;0.30;;
29280;SDS011;25048;49.590;11.026;2023-08-06T13:34:53;0.30;;;0.30;;
29280;SDS011;25048;49.590;11.026;2023-08-06T13:37:21;0.30;;;0.30;;
29280;SDS011;25048;49.590;11.026;2023-08-06T13:39:48;0.68;;;0.40;;
29280;SDS011;25048;49.590;11.026;2023-08-06T13:42:16;0.20;;;0.20;;
29280;SDS011;25048;49.590;11.026;2023-08-06T13:44:43;0.37;;;0.30;;
29280;SDS011;25048;49.590;11.026;2023-08-06T13:47:11;1.35;;;0.30;;
29280;SDS011;25048;49.590;11.026;2023-08-06T13:49:41;0.30;;;0.30;;
29280;SDS011;25048;49.590;11.026;2023-08-06T13:52:08;0.42;;;0.30;;
29280;SDS011;25048;49.590;11.026;2023-08-06T13:54:36;1.22;;;0.30;;
29280;SDS011;25048;49.590;11.026;2023-08-06T13:57:03;1.12;;;0.30;;
29280;SDS011;25048;49.590;11.026;2023-08-06T13:59:31;0.23;;;0.23;;
29280;SDS011;25048;49.590;11.026;2023-08-06T14:01:58;0.20;;;0.20;;
29280;SDS011;25048;49.590;11.026;2023-08-06T14:04:26;0.30;;;0.30;;
29280;SDS011;25048;49.590;11.026;2023-08-06T14:06:54;0.37;;;0.37;;
29280;SDS011;25048;49.590;11.026;2023-08-06T14:09:21;0.30;;;0.30;;
29280;SDS011;25048;49.590;11.026;2023-08-06T14:11:49;0.23;;;0.23;;
29280;SDS011;25048;49.590;11.026;2023-08-06T14:14:16;0.40;;;0.40;;
29280;SDS011;25048;49.590;11.026;2023-08-06T14:16:43;0.40;;;0.40;;
29280;SDS011;25048;49.590;11.026;2023-08-06T14:19:11;0.30;;;0.30;;
29280;SDS011;25048;49.590;11.026;2023-08-06T14:21:38;0.30;;;0.30;;
29280;SDS011;25048;49.590;11.026;2023-08-06T14:24:06;0.30;;;0.30;;
29280;SDS011;25048;49.590;11.026;2023-08-06T14:26:33;0.50;;;0.40;;
29280;SDS011;25048;49.590;11.026;2023-08-06T14:29:01;0.30;;;0.30;;
29280;SDS011;25048;49.590;11.026;2023-08-06T14:31:28;0.30;;;0.30;;
29280;SDS011;25048;49.590;11.026;2023-08-06T14:33:57;0.85;;;0.42;;
29280;SDS011;25048;49.590;11.026;2023-08-06T14:36:25;0.30;;;0.30;;
29280;SDS011;25048;49.590;11.026;2023-08-06T14:38:53;0.42;;;0.30;;
29280;SDS011;25048;49.590;11.026;2023-08-06T14:41:20;0.30;;;0.30;;